sensor_id;sensor_type;location;lat;lon;timestamp;pressure;altitude;pressure_sealevel;temperature;humidity
34124;BME280;13153;52.316;21.166;2023-07-31T00:00:33;99741.38;;;24.53;57.14
34124;BME280;13153;52.316;21.166;2023-07-31T00:02:59;99745.06;;;24.51;57.16
34124;BME280;13153;52.316;21.166;2023-07-31T00:05:25;99743.44;;;24.47;56.78
34124;BME280;13153;52.316;21.166;2023-07-31T00:07:51;99746.19;;;24.45;56.44
34124;BME280;13153;52.316;21.166;2023-07-31T00:10:17;99735.56;;;24.42;57.40
34124;BME280;13153;52.316;21.166;2023-07-31T00:12:45;99736.44;;;24.43;57.08
34124;BME280;13153;52.316;21.166;2023-07-31T00:15:12;99735.63;;;24.41;56.88
34124;BME280;13153;52.316;21.166;2023-07-31T00:17:38;99735.75;;;24.38;56.85
34124;BME280;13153;52.316;21.166;2023-07-31T00:20:04;99734.94;;;24.35;57.61
34124;BME280;13153;52.316;21.166;2023-07-31T00:22:30;99734.97;;;24.34;57.08
34124;BME280;13153;52.316;21.166;2023-07-31T00:24:56;99735.09;;;24.31;56.83
34124;BME280;13153;52.316;21.166;2023-07-31T00:27:23;99734.22;;;24.30;56.69
34124;BME280;13153;52.316;21.166;2023-07-31T00:29:48;99745.03;;;24.29;56.78
34124;BME280;13153;52.316;21.166;2023-07-31T00:32:14;99742.41;;;24.27;57.13
34124;BME280;13153;52.316;21.166;2023-07-31T00:34:40;99744.31;;;24.25;57.31
34124;BME280;13153;52.316;21.166;2023-07-31T00:37:06;99748.72;;;24.26;57.06
34124;BME280;13153;52.316;21.166;2023-07-31T00:39:34;99746.22;;;24.22;56.74
34124;BME280;13153;52.316;21.166;2023-07-31T00:42:01;99740.97;;;24.19;57.03
34124;BME280;13153;52.316;21.166;2023-07-31T00:44:27;99746.94;;;24.03;56.97
34124;BME280;13153;52.316;21.166;2023-07-31T00:46:54;99746.34;;;23.95;57.32
34124;BME280;13153;52.316;21.166;2023-07-31T00:49:22;99739.28;;;23.93;57.30
34124;BME280;13153;52.316;21.166;2023-07-31T00:51:48;99744.72;;;23.91;57.84
34124;BME280;13153;52.316;21.166;2023-07-31T00:54:14;99738.47;;;23.91;57.27
34124;BME280;13153;52.316;21.166;2023-07-31T00:56:41;99742.22;;;23.87;57.06
34124;BME280;13153;52.316;21.166;2023-07-31T00:59:10;99741.38;;;23.85;56.96
34124;BME280;13153;52.316;21.166;2023-07-31T01:01:36;99736.94;;;23.84;57.02
34124;BME280;13153;52.316;21.166;2023-07-31T01:04:02;99733.38;;;23.83;56.66
34124;BME280;13153;52.316;21.166;2023-07-31T01:11:56;99735.38;;;23.78;56.70
34124;BME280;13153;52.316;21.166;2023-07-31T01:14:22;99731.03;;;23.74;56.85
34124;BME280;13153;52.316;21.166;2023-07-31T01:16:48;99730.28;;;23.70;56.71
34124;BME280;13153;52.316;21.166;2023-07-31T01:19:17;99733.91;;;23.69;57.29
34124;BME280;13153;52.316;21.166;2023-07-31T01:27:40;99736.25;;;23.55;57.46
34124;BME280;13153;52.316;21.166;2023-07-31T01:30:18;99743.50;;;23.52;57.88
34124;BME280;13153;52.316;21.166;2023-07-31T01:32:49;99748.41;;;23.65;57.27
34124;BME280;13153;52.316;21.166;2023-07-31T01:35:16;99744.25;;;23.57;57.15
34124;BME280;13153;52.316;21.166;2023-07-31T01:37:42;99736.38;;;23.51;57.66
34124;BME280;13153;52.316;21.166;2023-07-31T01:40:09;99732.75;;;23.53;57.68
34124;BME280;13153;52.316;21.166;2023-07-31T01:42:35;99740.34;;;23.65;56.88
34124;BME280;13153;52.316;21.166;2023-07-31T01:45:00;99743.78;;;23.69;56.88
34124;BME280;13153;52.316;21.166;2023-07-31T01:47:26;99745.47;;;23.71;56.85
34124;BME280;13153;52.316;21.166;2023-07-31T01:49:52;99745.53;;;23.70;57.00
34124;BME280;13153;52.316;21.166;2023-07-31T01:52:17;99737.41;;;23.71;57.15
34124;BME280;13153;52.316;21.166;2023-07-31T01:54:43;99743.59;;;23.74;56.77
34124;BME280;13153;52.316;21.166;2023-07-31T01:57:09;99745.28;;;23.76;57.05
34124;BME280;13153;52.316;21.166;2023-07-31T01:59:36;99747.16;;;23.74;57.17
34124;BME280;13153;52.316;21.166;2023-07-31T02:02:01;99744.59;;;23.71;56.65
34124;BME280;13153;52.316;21.166;2023-07-31T02:04:27;99748.28;;;23.68;57.09
34124;BME280;13153;52.316;21.166;2023-07-31T02:06:53;99749.94;;;23.48;57.19
34124;BME280;13153;52.316;21.166;2023-07-31T02:09:19;99747.69;;;23.35;57.98
34124;BME280;13153;52.316;21.166;2023-07-31T02:11:45;99755.91;;;23.31;57.99
34124;BME280;13153;52.316;21.166;2023-07-31T02:14:10;99750.69;;;23.26;57.78
34124;BME280;13153;52.316;21.166;2023-07-31T02:16:36;99755.28;;;23.23;57.81
34124;BME280;13153;52.316;21.166;2023-07-31T02:19:02;99760.72;;;23.21;58.27
34124;BME280;13153;52.316;21.166;2023-07-31T02:21:28;99759.84;;;23.21;58.48
34124;BME280;13153;52.316;21.166;2023-07-31T02:23:53;99764.38;;;23.19;58.30
34124;BME280;13153;52.316;21.166;2023-07-31T02:26:19;99763.56;;;23.17;58.25
34124;BME280;13153;52.316;21.166;2023-07-31T02:28:45;99756.59;;;23.11;57.96
34124;BME280;13153;52.316;21.166;2023-07-31T02:31:11;99762.63;;;23.18;57.66
34124;BME280;13153;52.316;21.166;2023-07-31T02:33:36;99764.72;;;23.10;58.07
34124;BME280;13153;52.316;21.166;2023-07-31T02:36:02;99771.41;;;23.23;57.69
34124;BME280;13153;52.316;21.166;2023-07-31T02:38:28;99768.75;;;23.21;57.96
34124;BME280;13153;52.316;21.166;2023-07-31T02:40:54;99773.41;;;23.16;58.00
34124;BME280;13153;52.316;21.166;2023-07-31T02:43:19;99766.28;;;23.15;57.34
34124;BME280;13153;52.316;21.166;2023-07-31T02:45:45;99764.59;;;23.13;57.77
34124;BME280;13153;52.316;21.166;2023-07-31T02:48:11;99762.84;;;23.12;57.65
34124;BME280;13153;52.316;21.166;2023-07-31T02:50:37;99771.84;;;23.11;57.66
34124;BME280;13153;52.316;21.166;2023-07-31T02:53:02;99771.03;;;23.09;57.58
34124;BME280;13153;52.316;21.166;2023-07-31T02:55:28;99783.56;;;23.08;57.77
34124;BME280;13153;52.316;21.166;2023-07-31T02:57:54;99783.56;;;23.08;58.32
34124;BME280;13153;52.316;21.166;2023-07-31T03:00:19;99777.13;;;23.12;57.84
34124;BME280;13153;52.316;21.166;2023-07-31T03:02:45;99770.84;;;23.13;57.93
34124;BME280;13153;52.316;21.166;2023-07-31T03:05:11;99773.47;;;23.15;57.99
34124;BME280;13153;52.316;21.166;2023-07-31T03:07:37;99760.00;;;23.16;57.65
34124;BME280;13153;52.316;21.166;2023-07-31T03:10:02;99768.81;;;23.20;57.94
34124;BME280;13153;52.316;21.166;2023-07-31T03:12:28;99772.31;;;23.22;58.23
34124;BME280;13153;52.316;21.166;2023-07-31T03:14:54;99779.28;;;23.27;57.99
34124;BME280;13153;52.316;21.166;2023-07-31T03:17:20;99773.88;;;23.29;57.83
34124;BME280;13153;52.316;21.166;2023-07-31T03:19:46;99778.19;;;23.33;57.81
34124;BME280;13153;52.316;21.166;2023-07-31T03:22:12;99774.47;;;23.37;57.11
34124;BME280;13153;52.316;21.166;2023-07-31T03:24:37;99776.19;;;23.39;57.24
34124;BME280;13153;52.316;21.166;2023-07-31T03:27:03;99773.44;;;23.41;57.08
34124;BME280;13153;52.316;21.166;2023-07-31T03:29:29;99769.81;;;23.42;57.05
34124;BME280;13153;52.316;21.166;2023-07-31T03:31:55;99771.63;;;23.42;56.79
34124;BME280;13153;52.316;21.166;2023-07-31T03:34:22;99778.84;;;23.39;57.31
34124;BME280;13153;52.316;21.166;2023-07-31T03:36:48;99768.06;;;23.41;57.42
34124;BME280;13153;52.316;21.166;2023-07-31T03:39:13;99781.50;;;23.41;57.43
34124;BME280;13153;52.316;21.166;2023-07-31T03:41:39;99781.50;;;23.41;57.03
34124;BME280;13153;52.316;21.166;2023-07-31T03:44:05;99784.88;;;23.46;57.54
34124;BME280;13153;52.316;21.166;2023-07-31T03:46:31;99788.41;;;23.48;56.99
34124;BME280;13153;52.316;21.166;2023-07-31T03:48:56;99783.03;;;23.48;57.23
34124;BME280;13153;52.316;21.166;2023-07-31T03:51:22;99785.59;;;23.51;57.33
34124;BME280;13153;52.316;21.166;2023-07-31T03:53:48;99786.47;;;23.53;56.53
34124;BME280;13153;52.316;21.166;2023-07-31T03:56:14;99795.19;;;23.60;56.72
34124;BME280;13153;52.316;21.166;2023-07-31T03:58:39;99793.31;;;23.62;56.35
34124;BME280;13153;52.316;21.166;2023-07-31T04:01:06;99802.19;;;23.64;56.46
34124;BME280;13153;52.316;21.166;2023-07-31T04:03:32;99812.81;;;23.67;56.40
34124;BME280;13153;52.316;21.166;2023-07-31T04:05:57;99810.88;;;23.70;55.91
34124;BME280;13153;52.316;21.166;2023-07-31T04:08:24;99809.13;;;23.69;56.18
34124;BME280;13153;52.316;21.166;2023-07-31T04:10:50;99813.56;;;23.70;56.31
34124;BME280;13153;52.316;21.166;2023-07-31T04:13:16;99812.69;;;23.70;56.73
34124;BME280;13153;52.316;21.166;2023-07-31T04:15:42;99820.53;;;23.76;56.06
34124;BME280;13153;52.316;21.166;2023-07-31T04:18:08;99817.72;;;23.79;56.63
34124;BME280;13153;52.316;21.166;2023-07-31T04:20:34;99821.19;;;23.83;56.78
34124;BME280;13153;52.316;21.166;2023-07-31T04:22:59;99813.06;;;23.84;56.65
34124;BME280;13153;52.316;21.166;2023-07-31T04:25:25;99820.13;;;23.87;56.30
34124;BME280;13153;52.316;21.166;2023-07-31T04:27:51;99819.97;;;23.91;55.94
34124;BME280;13153;52.316;21.166;2023-07-31T04:30:16;99812.94;;;23.87;55.73
34124;BME280;13153;52.316;21.166;2023-07-31T04:32:42;99821.94;;;23.86;55.85
34124;BME280;13153;52.316;21.166;2023-07-31T04:35:08;99828.13;;;23.88;54.96
34124;BME280;13153;52.316;21.166;2023-07-31T04:37:34;99830.78;;;23.90;55.42
34124;BME280;13153;52.316;21.166;2023-07-31T04:39:59;99837.03;;;23.90;55.31
34124;BME280;13153;52.316;21.166;2023-07-31T04:42:25;99840.69;;;23.88;55.34
34124;BME280;13153;52.316;21.166;2023-07-31T04:44:51;99840.69;;;23.88;55.37
34124;BME280;13153;52.316;21.166;2023-07-31T04:47:19;99839.81;;;23.87;55.73
34124;BME280;13153;52.316;21.166;2023-07-31T04:49:45;99839.75;;;23.89;56.05
34124;BME280;13153;52.316;21.166;2023-07-31T04:52:10;99833.47;;;23.90;55.38
34124;BME280;13153;52.316;21.166;2023-07-31T04:54:36;99845.97;;;23.91;56.29
34124;BME280;13153;52.316;21.166;2023-07-31T04:57:02;99839.75;;;23.89;55.79
34124;BME280;13153;52.316;21.166;2023-07-31T04:59:28;99832.56;;;23.89;55.66
34124;BME280;13153;52.316;21.166;2023-07-31T05:01:54;99842.22;;;23.95;55.25
34124;BME280;13153;52.316;21.166;2023-07-31T05:04:19;99836.69;;;23.99;55.79
34124;BME280;13153;52.316;21.166;2023-07-31T05:06:45;99845.63;;;24.00;55.43
34124;BME280;13153;52.316;21.166;2023-07-31T05:09:11;99839.38;;;23.99;55.04
34124;BME280;13153;52.316;21.166;2023-07-31T05:11:37;99845.63;;;24.00;55.00
34124;BME280;13153;52.316;21.166;2023-07-31T05:14:03;99844.63;;;24.02;54.43
34124;BME280;13153;52.316;21.166;2023-07-31T05:16:29;99840.03;;;24.06;54.38
34124;BME280;13153;52.316;21.166;2023-07-31T05:18:54;99836.28;;;24.10;54.28
34124;BME280;13153;52.316;21.166;2023-07-31T05:21:20;99846.00;;;24.14;54.41
34124;BME280;13153;52.316;21.166;2023-07-31T05:23:46;99854.81;;;24.18;54.10
34124;BME280;13153;52.316;21.166;2023-07-31T05:26:13;99846.75;;;24.18;53.88
34124;BME280;13153;52.316;21.166;2023-07-31T05:28:39;99852.91;;;24.21;54.41
34124;BME280;13153;52.316;21.166;2023-07-31T05:31:05;99854.69;;;24.21;54.35
34124;BME280;13153;52.316;21.166;2023-07-31T05:33:32;99849.19;;;24.25;53.95
34124;BME280;13153;52.316;21.166;2023-07-31T05:35:58;99855.22;;;24.30;54.31
34124;BME280;13153;52.316;21.166;2023-07-31T05:38:24;99863.13;;;24.35;54.01
34124;BME280;13153;52.316;21.166;2023-07-31T05:40:49;99852.31;;;24.36;54.23
34124;BME280;13153;52.316;21.166;2023-07-31T05:43:15;99859.38;;;24.39;54.01
34124;BME280;13153;52.316;21.166;2023-07-31T05:45:43;99864.59;;;24.44;53.46
34124;BME280;13153;52.316;21.166;2023-07-31T05:48:09;99864.31;;;24.51;53.82
34124;BME280;13153;52.316;21.166;2023-07-31T05:50:34;99869.44;;;24.57;53.23
34124;BME280;13153;52.316;21.166;2023-07-31T05:53:00;99866.34;;;24.68;52.86
34124;BME280;13153;52.316;21.166;2023-07-31T05:55:26;99871.41;;;24.76;53.04
34124;BME280;13153;52.316;21.166;2023-07-31T05:57:53;99878.44;;;24.80;52.82
34124;BME280;13153;52.316;21.166;2023-07-31T06:00:18;99878.38;;;24.81;52.75
34124;BME280;13153;52.316;21.166;2023-07-31T06:02:44;99879.84;;;24.88;52.38
34124;BME280;13153;52.316;21.166;2023-07-31T06:05:10;99890.28;;;24.97;51.41
34124;BME280;13153;52.316;21.166;2023-07-31T06:07:36;99891.78;;;25.05;51.80
34124;BME280;13153;52.316;21.166;2023-07-31T06:10:02;99893.41;;;25.09;51.53
34124;BME280;13153;52.316;21.166;2023-07-31T06:12:32;99895.53;;;25.22;51.01
34124;BME280;13153;52.316;21.166;2023-07-31T06:14:58;99895.03;;;25.34;51.14
34124;BME280;13153;52.316;21.166;2023-07-31T06:17:24;99891.28;;;25.39;50.54
34124;BME280;13153;52.316;21.166;2023-07-31T06:19:51;99892.81;;;25.44;50.97
34124;BME280;13153;52.316;21.166;2023-07-31T06:22:17;99892.75;;;25.46;50.29
34124;BME280;13153;52.316;21.166;2023-07-31T06:24:44;99893.47;;;25.49;50.49
34124;BME280;13153;52.316;21.166;2023-07-31T06:27:10;99900.09;;;25.62;50.38
34124;BME280;13153;52.316;21.166;2023-07-31T06:29:37;99900.81;;;25.67;50.49
34124;BME280;13153;52.316;21.166;2023-07-31T06:32:03;99897.84;;;25.74;50.05
34124;BME280;13153;52.316;21.166;2023-07-31T06:34:29;99900.28;;;25.80;49.91
34124;BME280;13153;52.316;21.166;2023-07-31T06:36:58;99898.19;;;25.86;50.07
34124;BME280;13153;52.316;21.166;2023-07-31T06:39:24;99900.91;;;25.86;49.25
34124;BME280;13153;52.316;21.166;2023-07-31T06:41:50;99903.59;;;25.86;49.33
34124;BME280;13153;52.316;21.166;2023-07-31T06:44:16;99902.09;;;25.79;49.03
34124;BME280;13153;52.316;21.166;2023-07-31T06:46:42;99904.88;;;25.78;49.78
34124;BME280;13153;52.316;21.166;2023-07-31T06:49:08;99904.81;;;25.79;49.78
34124;BME280;13153;52.316;21.166;2023-07-31T06:51:34;99902.31;;;25.75;50.26
34124;BME280;13153;52.316;21.166;2023-07-31T06:54:01;99914.28;;;25.67;51.43
34124;BME280;13153;52.316;21.166;2023-07-31T06:56:27;99916.53;;;25.56;51.03
34124;BME280;13153;52.316;21.166;2023-07-31T06:58:53;99915.78;;;25.53;51.88
34124;BME280;13153;52.316;21.166;2023-07-31T07:01:18;99911.41;;;25.50;52.10
34124;BME280;13153;52.316;21.166;2023-07-31T07:03:44;99917.03;;;25.44;51.87
34124;BME280;13153;52.316;21.166;2023-07-31T07:06:10;99918.22;;;25.39;51.74
34124;BME280;13153;52.316;21.166;2023-07-31T07:08:36;99915.84;;;25.31;52.06
34124;BME280;13153;52.316;21.166;2023-07-31T07:11:02;99912.31;;;25.29;51.94
34124;BME280;13153;52.316;21.166;2023-07-31T07:13:27;99914.97;;;25.30;51.92
34124;BME280;13153;52.316;21.166;2023-07-31T07:15:53;99917.47;;;25.35;51.39
34124;BME280;13153;52.316;21.166;2023-07-31T07:18:19;99917.28;;;25.40;51.32
34124;BME280;13153;52.316;21.166;2023-07-31T07:20:51;99912.00;;;25.37;51.18
34124;BME280;13153;52.316;21.166;2023-07-31T07:23:17;99918.28;;;25.37;51.36
34124;BME280;13153;52.316;21.166;2023-07-31T07:25:45;99921.03;;;25.36;51.16
34124;BME280;13153;52.316;21.166;2023-07-31T07:28:12;99921.16;;;25.32;50.75
34124;BME280;13153;52.316;21.166;2023-07-31T07:30:38;99925.72;;;25.30;50.81
34124;BME280;13153;52.316;21.166;2023-07-31T07:33:04;99922.72;;;25.38;50.74
34124;BME280;13153;52.316;21.166;2023-07-31T07:35:29;99916.69;;;25.95;50.54
34124;BME280;13153;52.316;21.166;2023-07-31T07:37:55;99912.72;;;26.62;48.56
34124;BME280;13153;52.316;21.166;2023-07-31T07:40:22;99915.50;;;27.87;46.43
34124;BME280;13153;52.316;21.166;2023-07-31T07:42:48;99916.06;;;29.40;42.16
34124;BME280;13153;52.316;21.166;2023-07-31T07:45:13;99905.00;;;29.89;40.52
34124;BME280;13153;52.316;21.166;2023-07-31T07:47:41;99912.47;;;30.30;39.36
34124;BME280;13153;52.316;21.166;2023-07-31T07:50:08;99912.00;;;30.66;38.58
34124;BME280;13153;52.316;21.166;2023-07-31T07:52:34;99918.47;;;30.77;38.81
34124;BME280;13153;52.316;21.166;2023-07-31T07:55:00;99917.13;;;31.26;37.18
34124;BME280;13153;52.316;21.166;2023-07-31T07:57:26;99912.53;;;31.80;36.13
34124;BME280;13153;52.316;21.166;2023-07-31T07:59:52;99919.03;;;32.04;35.00
34124;BME280;13153;52.316;21.166;2023-07-31T08:02:18;99922.28;;;32.09;35.85
34124;BME280;13153;52.316;21.166;2023-07-31T08:04:44;99912.47;;;31.94;35.38
34124;BME280;13153;52.316;21.166;2023-07-31T08:07:13;99920.19;;;31.75;35.99
34124;BME280;13153;52.316;21.166;2023-07-31T08:09:39;99924.72;;;31.47;36.87
34124;BME280;13153;52.316;21.166;2023-07-31T08:12:06;99921.03;;;31.48;37.14
34124;BME280;13153;52.316;21.166;2023-07-31T08:14:32;99918.84;;;31.68;36.74
34124;BME280;13153;52.316;21.166;2023-07-31T08:16:58;99912.72;;;31.64;36.46
34124;BME280;13153;52.316;21.166;2023-07-31T08:19:24;99910.31;;;31.60;36.71
34124;BME280;13153;52.316;21.166;2023-07-31T08:21:49;99916.81;;;31.71;36.45
34124;BME280;13153;52.316;21.166;2023-07-31T08:24:15;99913.75;;;31.76;36.30
34124;BME280;13153;52.316;21.166;2023-07-31T08:26:41;99905.69;;;31.87;36.29
34124;BME280;13153;52.316;21.166;2023-07-31T08:29:07;99908.56;;;31.98;36.17
34124;BME280;13153;52.316;21.166;2023-07-31T08:31:33;99902.56;;;32.06;36.20
34124;BME280;13153;52.316;21.166;2023-07-31T08:34:00;99915.31;;;32.05;35.38
34124;BME280;13153;52.316;21.166;2023-07-31T08:36:26;99911.63;;;32.06;35.52
34124;BME280;13153;52.316;21.166;2023-07-31T08:38:51;99917.28;;;32.16;35.58
34124;BME280;13153;52.316;21.166;2023-07-31T08:41:17;99916.09;;;32.20;35.32
34124;BME280;13153;52.316;21.166;2023-07-31T08:43:46;99915.03;;;32.23;35.83
34124;BME280;13153;52.316;21.166;2023-07-31T08:46:12;99905.03;;;32.23;35.51
34124;BME280;13153;52.316;21.166;2023-07-31T08:48:42;99908.72;;;32.22;35.84
34124;BME280;13153;52.316;21.166;2023-07-31T08:51:09;99907.81;;;32.22;35.32
34124;BME280;13153;52.316;21.166;2023-07-31T08:53:35;99900.63;;;32.21;35.86
34124;BME280;13153;52.316;21.166;2023-07-31T08:56:02;99903.69;;;32.16;34.57
34124;BME280;13153;52.316;21.166;2023-07-31T08:58:32;99897.03;;;32.07;34.92
34124;BME280;13153;52.316;21.166;2023-07-31T09:01:03;99901.72;;;32.05;35.22
34124;BME280;13153;52.316;21.166;2023-07-31T09:03:34;99902.47;;;32.07;34.86
34124;BME280;13153;52.316;21.166;2023-07-31T09:06:04;99904.75;;;32.01;34.44
34124;BME280;13153;52.316;21.166;2023-07-31T09:08:32;99907.91;;;31.95;34.58
34124;BME280;13153;52.316;21.166;2023-07-31T09:11:02;99904.72;;;31.88;34.97
34124;BME280;13153;52.316;21.166;2023-07-31T09:13:31;99908.31;;;31.76;34.20
34124;BME280;13153;52.316;21.166;2023-07-31T09:15:58;99911.50;;;31.56;33.98
34124;BME280;13153;52.316;21.166;2023-07-31T09:18:24;99908.25;;;31.36;34.11
34124;BME280;13153;52.316;21.166;2023-07-31T09:21:03;99899.75;;;31.28;34.94
34124;BME280;13153;52.316;21.166;2023-07-31T09:23:50;99907.22;;;31.25;34.67
34124;BME280;13153;52.316;21.166;2023-07-31T09:26:30;99901.66;;;31.13;34.40
34124;BME280;13153;52.316;21.166;2023-07-31T09:28:57;99899.63;;;31.03;34.26
34124;BME280;13153;52.316;21.166;2023-07-31T09:34:04;99905.34;;;30.98;35.41
34124;BME280;13153;52.316;21.166;2023-07-31T09:36:30;99897.41;;;30.95;35.01
34124;BME280;13153;52.316;21.166;2023-07-31T09:39:02;99896.72;;;30.92;35.15
34124;BME280;13153;52.316;21.166;2023-07-31T09:41:30;99901.38;;;30.90;35.44
34124;BME280;13153;52.316;21.166;2023-07-31T09:43:56;99898.78;;;30.88;34.79
34124;BME280;13153;52.316;21.166;2023-07-31T09:46:27;99896.06;;;30.88;35.32
34124;BME280;13153;52.316;21.166;2023-07-31T09:48:53;99902.25;;;30.90;34.51
34124;BME280;13153;52.316;21.166;2023-07-31T09:51:26;99911.28;;;30.91;34.63
34124;BME280;13153;52.316;21.166;2023-07-31T09:53:52;99901.00;;;30.96;35.12
34124;BME280;13153;52.316;21.166;2023-07-31T09:56:21;99901.19;;;30.93;34.49
34124;BME280;13153;52.316;21.166;2023-07-31T09:58:48;99900.03;;;30.82;34.56
34124;BME280;13153;52.316;21.166;2023-07-31T10:01:14;99897.72;;;30.76;35.11
34124;BME280;13153;52.316;21.166;2023-07-31T10:03:42;99896.38;;;30.69;35.07
34124;BME280;13153;52.316;21.166;2023-07-31T10:06:11;99895.25;;;30.59;35.22
34124;BME280;13153;52.316;21.166;2023-07-31T10:08:39;99898.94;;;30.58;35.20
34124;BME280;13153;52.316;21.166;2023-07-31T10:11:09;99903.06;;;30.64;35.31
34124;BME280;13153;52.316;21.166;2023-07-31T10:13:35;99898.72;;;30.61;35.06
34124;BME280;13153;52.316;21.166;2023-07-31T10:16:02;99900.56;;;30.61;35.15
34124;BME280;13153;52.316;21.166;2023-07-31T10:18:29;99895.34;;;30.58;34.36
34124;BME280;13153;52.316;21.166;2023-07-31T10:20:56;99899.28;;;30.52;33.98
34124;BME280;13153;52.316;21.166;2023-07-31T10:23:23;99899.28;;;30.52;33.62
34124;BME280;13153;52.316;21.166;2023-07-31T10:25:53;99898.22;;;30.54;33.89
34124;BME280;13153;52.316;21.166;2023-07-31T10:28:20;99898.59;;;30.48;33.50
34124;BME280;13153;52.316;21.166;2023-07-31T10:30:47;99899.28;;;30.52;33.74
34124;BME280;13153;52.316;21.166;2023-07-31T10:33:13;99892.78;;;30.54;33.91
34124;BME280;13153;52.316;21.166;2023-07-31T10:35:40;99902.59;;;30.43;32.84
34124;BME280;13153;52.316;21.166;2023-07-31T10:38:10;99901.09;;;30.23;32.05
34124;BME280;13153;52.316;21.166;2023-07-31T10:40:40;99897.91;;;30.16;31.99
34124;BME280;13153;52.316;21.166;2023-07-31T10:43:06;99894.78;;;30.08;31.79
34124;BME280;13153;52.316;21.166;2023-07-31T10:45:39;99892.38;;;30.04;33.18
34124;BME280;13153;52.316;21.166;2023-07-31T10:48:15;99901.84;;;29.97;37.94
34124;BME280;13153;52.316;21.166;2023-07-31T10:50:51;99895.41;;;29.83;38.11
34124;BME280;13153;52.316;21.166;2023-07-31T10:53:31;99892.75;;;29.68;34.57
34124;BME280;13153;52.316;21.166;2023-07-31T10:56:03;99902.03;;;29.64;35.39
34124;BME280;13153;52.316;21.166;2023-07-31T10:58:31;99895.81;;;29.62;35.20
34124;BME280;13153;52.316;21.166;2023-07-31T11:01:06;99895.03;;;29.60;34.94
34124;BME280;13153;52.316;21.166;2023-07-31T11:03:49;99897.75;;;29.60;35.47
34124;BME280;13153;52.316;21.166;2023-07-31T11:06:18;99888.66;;;29.61;35.51
34124;BME280;13153;52.316;21.166;2023-07-31T11:08:49;99888.75;;;29.59;35.65
34124;BME280;13153;52.316;21.166;2023-07-31T11:11:18;99884.97;;;29.62;35.35
34124;BME280;13153;52.316;21.166;2023-07-31T11:13:51;99889.44;;;29.63;36.50
34124;BME280;13153;52.316;21.166;2023-07-31T11:16:20;99899.59;;;29.59;35.67
34124;BME280;13153;52.316;21.166;2023-07-31T11:18:48;99893.56;;;29.54;35.44
34124;BME280;13153;52.316;21.166;2023-07-31T11:21:33;99890.16;;;29.50;37.24
34124;BME280;13153;52.316;21.166;2023-07-31T11:23:58;99891.31;;;29.46;37.30
34124;BME280;13153;52.316;21.166;2023-07-31T11:26:24;99896.06;;;29.43;35.61
34124;BME280;13153;52.316;21.166;2023-07-31T11:28:51;99887.84;;;29.44;37.93
34124;BME280;13153;52.316;21.166;2023-07-31T11:31:18;99888.81;;;29.43;37.54
34124;BME280;13153;52.316;21.166;2023-07-31T11:33:44;99887.84;;;29.44;38.34
34124;BME280;13153;52.316;21.166;2023-07-31T11:36:18;99879.06;;;29.39;37.60
34124;BME280;13153;52.316;21.166;2023-07-31T11:38:44;99887.31;;;29.38;37.10
34124;BME280;13153;52.316;21.166;2023-07-31T11:41:13;99890.00;;;29.38;37.37
34124;BME280;13153;52.316;21.166;2023-07-31T11:43:39;99879.63;;;29.30;36.11
34124;BME280;13153;52.316;21.166;2023-07-31T11:46:05;99885.81;;;29.32;37.78
34124;BME280;13153;52.316;21.166;2023-07-31T11:48:37;99878.56;;;29.33;38.14
34124;BME280;13153;52.316;21.166;2023-07-31T11:51:06;99883.13;;;29.32;38.50
34124;BME280;13153;52.316;21.166;2023-07-31T11:54:04;99883.28;;;29.29;37.22
34124;BME280;13153;52.316;21.166;2023-07-31T11:56:30;99881.53;;;29.28;37.69
34124;BME280;13153;52.316;21.166;2023-07-31T11:58:59;99874.38;;;29.27;38.14
34124;BME280;13153;52.316;21.166;2023-07-31T12:01:28;99872.53;;;29.28;35.40
34124;BME280;13153;52.316;21.166;2023-07-31T12:03:56;99872.44;;;29.29;35.50
34124;BME280;13153;52.316;21.166;2023-07-31T12:06:32;99866.25;;;29.27;35.19
34124;BME280;13153;52.316;21.166;2023-07-31T12:09:04;99868.69;;;29.32;36.49
34124;BME280;13153;52.316;21.166;2023-07-31T12:11:30;99857.06;;;29.30;36.58
34124;BME280;13153;52.316;21.166;2023-07-31T12:13:56;99864.41;;;29.28;34.25
34124;BME280;13153;52.316;21.166;2023-07-31T12:16:26;99861.88;;;29.24;36.22
34124;BME280;13153;52.316;21.166;2023-07-31T12:18:52;99864.69;;;29.23;37.31
34124;BME280;13153;52.316;21.166;2023-07-31T12:21:19;99857.59;;;29.20;37.23
34124;BME280;13153;52.316;21.166;2023-07-31T12:23:45;99861.34;;;29.18;35.62
34124;BME280;13153;52.316;21.166;2023-07-31T12:26:16;99856.03;;;29.16;36.24
34124;BME280;13153;52.316;21.166;2023-07-31T12:28:46;99849.75;;;29.16;38.24
34124;BME280;13153;52.316;21.166;2023-07-31T12:31:20;99846.34;;;29.12;37.16
34124;BME280;13153;52.316;21.166;2023-07-31T12:33:49;99852.91;;;29.08;37.52
34124;BME280;13153;52.316;21.166;2023-07-31T12:36:25;99852.03;;;29.08;37.86
34124;BME280;13153;52.316;21.166;2023-07-31T12:38:52;99847.56;;;29.07;38.86
34124;BME280;13153;52.316;21.166;2023-07-31T12:41:18;99846.78;;;29.05;38.42
34124;BME280;13153;52.316;21.166;2023-07-31T12:43:45;99837.94;;;29.01;38.01
34124;BME280;13153;52.316;21.166;2023-07-31T12:46:11;99838.91;;;29.00;38.48
34124;BME280;13153;52.316;21.166;2023-07-31T12:48:38;99836.22;;;29.00;40.06
34124;BME280;13153;52.316;21.166;2023-07-31T12:51:05;99834.56;;;28.98;35.47
34124;BME280;13153;52.316;21.166;2023-07-31T12:53:33;99834.56;;;28.98;40.21
34124;BME280;13153;52.316;21.166;2023-07-31T12:55:59;99829.13;;;28.98;39.71
34124;BME280;13153;52.316;21.166;2023-07-31T12:58:25;99827.47;;;28.95;37.01
34124;BME280;13153;52.316;21.166;2023-07-31T13:00:51;99823.97;;;28.93;39.12
34124;BME280;13153;52.316;21.166;2023-07-31T13:03:17;99825.91;;;28.91;36.71